createdAt,value
2022-10-25T05:10:51.819Z,15.90
2022-10-25T05:13:21.595Z,15.30
2022-10-25T05:15:59.490Z,16.00
2022-10-25T05:18:27.949Z,16.00
2022-10-25T05:20:56.946Z,16.00
2022-10-25T05:23:25.958Z,16.80
2022-10-25T05:26:02.371Z,16.00
2022-10-25T05:28:32.228Z,16.00
2022-10-25T05:31:04.553Z,15.90
2022-10-25T05:33:33.332Z,15.70
2022-10-25T05:36:02.327Z,15.80
2022-10-25T05:38:34.219Z,15.60
2022-10-25T05:41:06.847Z,15.70
2022-10-25T05:43:36.412Z,15.90
2022-10-25T05:46:06.855Z,15.80
2022-10-25T05:48:36.696Z,15.70
2022-10-25T05:51:32.125Z,15.80
2022-10-25T05:54:02.265Z,15.80
2022-10-25T05:56:31.574Z,15.70
2022-10-25T05:59:03.893Z,15.80
2022-10-25T06:01:32.299Z,15.70
2022-10-25T06:04:05.228Z,15.70
2022-10-25T06:06:33.507Z,15.80
2022-10-25T06:09:02.488Z,16.10
2022-10-25T06:11:31.391Z,15.90
2022-10-25T06:14:00.936Z,15.90
2022-10-25T06:16:29.463Z,15.90
2022-10-25T06:18:57.949Z,16.10
2022-10-25T06:21:27.976Z,16.20
2022-10-25T06:23:57.031Z,16.20
2022-10-25T06:26:26.845Z,16.40
2022-10-25T06:28:56.730Z,16.40
2022-10-25T06:31:26.706Z,16.40
2022-10-25T06:33:54.943Z,16.50
2022-10-25T06:36:24.894Z,16.40
2022-10-25T06:38:53.593Z,16.60
2022-10-25T06:41:23.243Z,16.40
2022-10-25T06:43:52.131Z,16.70
2022-10-25T06:46:23.284Z,16.70
2022-10-25T06:48:54.342Z,16.70
2022-10-25T06:51:23.529Z,16.80
2022-10-25T06:53:56.144Z,16.70
2022-10-25T06:56:56.842Z,16.80
2022-10-25T07:04:15.924Z,16.70
2022-10-25T07:06:44.124Z,17.00
2022-10-25T07:09:12.561Z,17.00
2022-10-25T07:11:41.106Z,16.90
2022-10-25T07:14:17.287Z,16.80
2022-10-25T07:16:46.696Z,16.80
2022-10-25T07:19:16.892Z,16.80
2022-10-25T07:21:46.333Z,16.80
2022-10-25T07:24:15.139Z,16.50
2022-10-25T07:26:43.328Z,16.80
2022-10-25T07:29:11.869Z,17.00
2022-10-25T07:31:43.246Z,17.10
2022-10-25T07:34:13.720Z,17.00
2022-10-25T07:36:43.482Z,17.20
2022-10-25T07:39:12.091Z,17.20
2022-10-25T07:41:40.372Z,17.30
2022-10-25T07:44:13.033Z,17.20
2022-10-25T07:46:44.450Z,17.30
2022-10-25T07:49:12.627Z,17.20
2022-10-25T07:51:42.395Z,17.50
2022-10-25T07:54:11.023Z,17.80
2022-10-25T07:56:39.237Z,17.90
2022-10-25T07:59:07.435Z,18.00
2022-10-25T08:01:36.758Z,18.00
2022-10-25T08:04:08.119Z,18.10
2022-10-25T08:06:36.491Z,18.00
2022-10-25T08:09:14.898Z,18.10
2022-10-25T08:11:48.728Z,18.30
2022-10-25T08:14:17.157Z,18.50
2022-10-25T08:16:45.950Z,18.40
2022-10-25T08:19:14.155Z,18.40
2022-10-25T08:21:42.331Z,18.60
2022-10-25T08:24:12.920Z,18.60
2022-10-25T08:27:38.745Z,18.40
2022-10-25T08:30:25.003Z,18.20
2022-10-25T09:55:04.382Z,20.60
2022-10-25T09:57:32.631Z,21.70
2022-10-25T10:00:00.778Z,22.50
2022-10-25T10:02:29.303Z,23.70
2022-10-25T10:04:57.707Z,22.90
2022-10-25T10:07:30.238Z,22.30
2022-10-25T10:10:02.900Z,21.80
2022-10-25T10:12:37.852Z,22.00
2022-10-25T10:15:13.048Z,21.40
2022-10-25T10:17:41.270Z,21.30
2022-10-25T10:20:13.964Z,21.50
2022-10-25T10:25:22.714Z,21.90
2022-10-25T10:27:53.546Z,22.00
2022-10-25T10:30:28.764Z,22.30
2022-10-25T10:33:00.274Z,22.50
2022-10-25T10:35:31.757Z,22.40
2022-10-25T10:38:23.592Z,22.30
2022-10-25T10:40:55.873Z,21.90
2022-10-25T10:43:28.031Z,21.90
2022-10-25T10:46:03.329Z,21.70
2022-10-25T10:48:42.050Z,21.40
2022-10-25T10:51:43.132Z,23.50
2022-10-25T10:54:24.368Z,24.90
2022-10-25T10:56:59.615Z,27.90
2022-10-25T10:59:36.288Z,26.70
2022-10-25T11:02:25.342Z,26.80
2022-10-25T11:05:03.375Z,27.00
2022-10-25T11:07:34.526Z,27.60
2022-10-25T11:10:24.185Z,28.30
2022-10-25T11:13:18.673Z,28.70
2022-10-25T11:16:27.358Z,28.00
2022-10-25T11:19:20.200Z,26.00
2022-10-25T11:21:57.375Z,24.00
2022-10-25T11:25:01.000Z,23.10
2022-10-25T11:27:49.638Z,22.60
2022-10-25T11:30:35.747Z,22.20
2022-10-25T11:33:39.853Z,22.20
2022-10-25T11:36:19.295Z,22.30
2022-10-25T11:39:02.820Z,22.60
2022-10-25T11:41:40.387Z,22.40
2022-10-25T11:44:32.211Z,22.00
2022-10-25T11:47:10.418Z,22.10
2022-10-25T11:49:52.373Z,22.40
2022-10-25T11:52:46.178Z,22.30
2022-10-25T11:55:28.498Z,22.40
2022-10-25T11:58:09.517Z,22.70
2022-10-25T12:00:51.185Z,22.30
2022-10-25T12:03:33.134Z,22.50
2022-10-25T12:06:10.044Z,22.10
2022-10-25T12:08:48.355Z,22.10
2022-10-25T12:11:19.899Z,21.50
2022-10-25T12:13:51.873Z,21.30
2022-10-25T12:16:23.047Z,21.40
2022-10-25T12:18:59.887Z,21.70
2022-10-25T12:21:33.699Z,21.50
2022-10-25T12:24:03.057Z,22.60
2022-10-25T12:26:45.341Z,23.30
2022-10-25T12:29:36.264Z,23.60
2022-10-25T12:32:11.484Z,25.50
2022-10-25T12:34:44.200Z,26.70
2022-10-25T12:37:17.481Z,27.00
2022-10-25T12:39:47.539Z,28.90
2022-10-25T12:42:19.817Z,31.30
2022-10-25T12:45:27.374Z,32.30
2022-10-25T12:48:09.795Z,33.30
2022-10-25T12:51:04.163Z,31.20
2022-10-25T12:54:06.857Z,29.60
2022-10-25T12:56:47.866Z,28.20
2022-10-25T12:59:32.682Z,26.60
2022-10-25T13:02:18.490Z,25.90
2022-10-25T13:05:07.267Z,24.60
2022-10-25T13:07:38.766Z,23.90
2022-10-25T13:10:19.694Z,23.00
2022-10-25T13:13:00.826Z,22.70
2022-10-25T13:15:41.963Z,23.20
2022-10-25T13:18:28.679Z,23.30
2022-10-25T13:20:57.127Z,23.00
2022-10-25T13:24:00.767Z,24.10
2022-10-25T13:26:48.448Z,23.80
2022-10-25T13:30:00.775Z,23.20
2022-10-25T13:32:30.413Z,23.40
2022-10-25T13:34:59.075Z,25.20
2022-10-25T13:37:45.208Z,26.80
2022-10-25T13:40:26.931Z,26.80
2022-10-25T13:43:03.959Z,27.90
2022-10-25T13:45:38.696Z,28.60
2022-10-25T13:48:18.538Z,28.60
2022-10-25T13:50:50.378Z,29.00
2022-10-25T13:53:23.126Z,29.20
2022-10-25T13:56:00.858Z,29.20
2022-10-25T13:58:49.755Z,27.80
2022-10-25T14:01:57.373Z,26.40
2022-10-25T14:04:37.776Z,25.20
2022-10-25T14:07:44.026Z,24.20
2022-10-25T14:10:29.081Z,23.00
2022-10-25T14:13:09.892Z,22.90
2022-10-25T14:15:44.499Z,22.60
2022-10-25T14:18:18.695Z,22.10
2022-10-25T14:20:48.921Z,21.90
2022-10-25T14:23:21.593Z,22.00
2022-10-25T14:25:56.254Z,21.90
2022-10-25T14:28:28.399Z,21.80
2022-10-25T14:31:00.888Z,22.10
2022-10-25T14:33:31.329Z,22.20
2022-10-25T14:36:09.782Z,22.10
2022-10-25T14:38:51.571Z,22.10
2022-10-25T14:41:24.218Z,22.20
2022-10-25T14:43:53.781Z,21.80
2022-10-25T14:46:25.023Z,21.90
2022-10-25T14:48:57.389Z,21.60
2022-10-25T14:51:28.281Z,21.40
2022-10-25T14:53:59.787Z,21.50
2022-10-25T14:56:31.303Z,21.50
2022-10-25T14:59:01.910Z,21.50
2022-10-25T15:01:30.290Z,21.50
2022-10-25T15:04:00.855Z,21.40
2022-10-25T15:06:33.438Z,21.10
2022-10-25T15:09:37.399Z,21.40
2022-10-25T15:12:21.060Z,21.40
2022-10-25T15:14:50.760Z,21.40
2022-10-25T15:17:29.770Z,21.20
2022-10-25T15:19:59.897Z,21.10
2022-10-25T15:22:33.028Z,21.00
2022-10-25T15:25:01.254Z,20.80
2022-10-25T15:27:35.297Z,20.90
2022-10-25T15:30:05.866Z,20.80
2022-10-25T15:32:34.859Z,20.60
2022-10-25T15:35:03.918Z,20.60
2022-10-25T15:37:32.329Z,20.50
2022-10-25T15:40:01.139Z,20.50
2022-10-25T15:42:29.305Z,20.50
2022-10-25T15:44:57.796Z,20.50
2022-10-25T15:47:34.164Z,20.50
2022-10-25T15:50:05.272Z,20.40
2022-10-25T15:52:33.439Z,20.10
2022-10-25T15:55:01.654Z,20.10
2022-10-25T15:57:29.755Z,20.00
2022-10-25T15:59:57.917Z,20.00
2022-10-25T16:02:28.623Z,20.00
2022-10-25T16:04:58.249Z,19.90
2022-10-25T16:07:26.452Z,19.80
2022-10-25T16:09:54.603Z,19.90
2022-10-25T16:12:27.259Z,19.90
2022-10-25T16:14:55.464Z,19.70
2022-10-25T16:17:23.643Z,19.50
2022-10-25T16:19:51.803Z,19.40
2022-10-25T16:22:21.301Z,19.30
2022-10-25T16:24:49.486Z,19.20
2022-10-25T16:27:17.693Z,19.10
2022-10-25T16:29:47.056Z,19.00
2022-10-25T16:32:15.282Z,18.90
2022-10-25T16:34:46.062Z,18.80
2022-10-25T16:37:19.139Z,18.60
2022-10-25T16:39:56.747Z,18.60
2022-10-25T16:42:29.781Z,18.50
2022-10-25T16:44:58.607Z,18.40
2022-10-25T16:47:29.911Z,18.40
2022-10-25T16:49:58.072Z,18.40
2022-10-25T17:08:17.473Z,17.70
2022-10-25T17:12:03.801Z,17.60
2022-10-25T17:14:32.214Z,17.60
2022-10-25T17:17:03.134Z,18.20
2022-10-25T18:52:24.986Z,16.30
2022-10-25T19:38:19.191Z,16.20
2022-10-25T19:41:31.420Z,16.70
2022-10-25T19:44:00.495Z,16.20
2022-10-25T19:46:33.039Z,15.40
2022-10-25T19:49:01.814Z,16.10
2022-10-25T19:51:30.660Z,15.40
2022-10-25T19:53:59.349Z,16.20
2022-10-25T19:56:29.590Z,15.40
2022-10-25T19:58:58.326Z,16.10
2022-10-25T20:01:33.547Z,16.00
2022-10-25T20:04:02.386Z,16.20
2022-10-25T20:06:39.694Z,16.20
2022-10-25T20:09:10.298Z,16.30
2022-10-25T20:11:40.549Z,16.30
2022-10-25T20:17:19.583Z,16.20
2022-10-25T20:19:48.554Z,16.10
2022-10-25T20:22:23.104Z,16.20
2022-10-25T20:24:57.905Z,15.90
2022-10-25T20:27:28.486Z,16.00
2022-10-25T20:29:59.181Z,15.50
2022-10-25T20:48:46.998Z,16.10
2022-10-25T20:51:16.978Z,15.90
